Big Bear Station Historical Data
Daily Summary for October 21, 2017 Units:  English    Metric   Both
« Previous Day
Next Day »
Daily Weekly Monthly Yearly Custom
  High: Low: Average:
Temperature: 65.8 °F 31.6 °F 45.8 °F
Dew Point: 27.9 °F 14.9 °F 20.7 °F
Humidity: 73 % 17 % 40 %
Wind Speed: 3.7 mph 0.0 mph 0.7 mph
Wind Gust: -999.0 mph - -
Wind:- - South
Pressure: 30.36 in 30.07 in -
Precipitation: 0.00 in    
Historical Graphs
 
 
Tabular Data for October 21, 2017
Time Temperature Dew Point Pressure Wind Wind Speed Wind Gust Humidity Rainfall Rate (Hourly)
00:05 45.5 °F 23.1 °F 30.07 in ENE 2.7 mph -999.0 mph 41 % 0 in
00:20 44.2 °F 18.9 °F 30.09 in SSE 2.7 mph -999.0 mph 36 % 0 in
00:35 42.6 °F 17.5 °F 30.10 in Calm   -999.0 mph 36 % 0 in
00:50 41.9 °F 14.9 °F 30.10 in Calm   -999.0 mph 33 % 0 in
01:05 41.4 °F 15.8 °F 30.09 in SW 2.2 mph -999.0 mph 35 % 0 in
01:21 40.3 °F 16.7 °F 30.10 in South 2.2 mph -999.0 mph 38 % 0 in
01:36 39.4 °F 16.5 °F 30.11 in Calm   -999.0 mph 39 % 0 in
01:51 38.5 °F 16.8 °F 30.11 in SSE 3.7 mph -999.0 mph 41 % 0 in
02:07 37.9 °F 16.3 °F 30.11 in ESE 2.2 mph -999.0 mph 41 % 0 in
02:22 37.2 °F 15.6 °F 30.11 in Calm   -999.0 mph 41 % 0 in
02:37 36.3 °F 15.4 °F 30.11 in Calm   -999.0 mph 42 % 0 in
02:52 36.0 °F 15.7 °F 30.12 in Calm   -999.0 mph 43 % 0 in
03:07 35.2 °F 15.4 °F 30.12 in Calm   -999.0 mph 44 % 0 in
03:23 34.7 °F 15.5 °F 30.12 in Calm   -999.0 mph 45 % 0 in
03:38 34.2 °F 15.6 °F 30.12 in Calm   -999.0 mph 46 % 0 in
03:53 33.6 °F 15.5 °F 30.12 in Calm   -999.0 mph 47 % 0 in
04:08 33.4 °F 16.3 °F 30.12 in Calm   -999.0 mph 49 % 0 in
04:23 33.1 °F 17.4 °F 30.12 in Calm   -999.0 mph 52 % 0 in
04:39 32.7 °F 18.3 °F 30.12 in Calm   -999.0 mph 55 % 0 in
04:54 32.2 °F 17.4 °F 30.12 in Calm   -999.0 mph 54 % 0 in
05:09 32.5 °F 18.1 °F 30.13 in Calm   -999.0 mph 55 % 0 in
05:24 32.2 °F 17.8 °F 30.14 in SE 1.7 mph -999.0 mph 55 % 0 in
05:39 32.4 °F 17.2 °F 30.14 in Calm   -999.0 mph 53 % 0 in
05:55 32.0 °F 18.5 °F 30.15 in Calm   -999.0 mph 57 % 0 in
06:10 32.0 °F 18.5 °F 30.15 in Calm   -999.0 mph 57 % 0 in
06:25 32.0 °F 20.1 °F 30.15 in Calm   -999.0 mph 61 % 0 in
06:40 31.8 °F 19.5 °F 30.16 in Calm   -999.0 mph 60 % 0 in
06:56 32.0 °F 21.9 °F 30.16 in Calm   -999.0 mph 66 % 0 in
07:11 31.6 °F 22.2 °F 30.16 in Calm   -999.0 mph 68 % 0 in
07:26 31.6 °F 22.9 °F 30.17 in Calm   -999.0 mph 70 % 0 in
07:41 32.0 °F 23.0 °F 30.17 in Calm   -999.0 mph 69 % 0 in
07:56 32.5 °F 24.8 °F 30.18 in Calm   -999.0 mph 73 % 0 in
08:12 32.9 °F 25.2 °F 30.19 in Calm   -999.0 mph 73 % 0 in
08:27 33.6 °F 25.2 °F 30.19 in Calm   -999.0 mph 71 % 0 in
08:57 35.8 °F 26.3 °F 30.21 in Calm   -999.0 mph 68 % 0 in
09:12 37.6 °F 25.0 °F 30.21 in Calm   -999.0 mph 60 % 0 in
09:28 39.0 °F 24.6 °F 30.22 in Calm   -999.0 mph 56 % 0 in
09:43 41.4 °F 24.6 °F 30.22 in Calm   -999.0 mph 51 % 0 in
09:58 43.7 °F 25.8 °F 30.22 in WNW 1.7 mph -999.0 mph 49 % 0 in
10:13 45.0 °F 27.9 °F 30.23 in Calm   -999.0 mph 51 % 0 in
10:28 50.2 °F 25.6 °F 30.22 in ENE 1.7 mph -999.0 mph 38 % 0 in
10:44 53.4 °F 25.7 °F 30.23 in NW 2.2 mph -999.0 mph 34 % 0 in
10:59 55.0 °F 27.1 °F 30.23 in WSW 2.7 mph -999.0 mph 34 % 0 in
11:14 56.5 °F 25.4 °F 30.23 in WNW 2.7 mph -999.0 mph 30 % 0 in
11:30 58.5 °F 24.6 °F 30.24 in NW 2.7 mph -999.0 mph 27 % 0 in
11:45 58.6 °F 24.7 °F 30.24 in Calm   -999.0 mph 27 % 0 in
12:00 60.4 °F 25.3 °F 30.24 in Calm   -999.0 mph 26 % 0 in
12:15 61.5 °F 24.3 °F 30.24 in ESE 1.1 mph -999.0 mph 24 % 0 in
12:46 63.1 °F 20.1 °F 30.23 in East 2.7 mph -999.0 mph 19 % 0 in
13:01 64.4 °F 21.2 °F 30.24 in SW 3.7 mph -999.0 mph 19 % 0 in
13:16 65.8 °F 22.4 °F 30.23 in ENE 2.7 mph -999.0 mph 19 % 0 in
13:31 65.3 °F 19.3 °F 30.23 in ESE 1.7 mph -999.0 mph 17 % 0 in
13:46 64.6 °F 20.1 °F 30.23 in ENE 2.2 mph -999.0 mph 18 % 0 in
14:02 65.8 °F 21.1 °F 30.23 in Calm   -999.0 mph 18 % 0 in
14:17 64.8 °F 18.9 °F 30.23 in ESE 1.1 mph -999.0 mph 17 % 0 in
14:32 63.0 °F 20.1 °F 30.24 in NE 2.2 mph -999.0 mph 19 % 0 in
14:48 62.2 °F 19.4 °F 30.24 in Calm   -999.0 mph 19 % 0 in
15:03 62.1 °F 21.7 °F 30.24 in North 1.1 mph -999.0 mph 21 % 0 in
15:18 61.2 °F 20.9 °F 30.25 in WSW 2.7 mph -999.0 mph 21 % 0 in
15:33 60.6 °F 20.4 °F 30.25 in SW 1.7 mph -999.0 mph 21 % 0 in
15:48 61.0 °F 19.6 °F 30.25 in WNW 1.7 mph -999.0 mph 20 % 0 in
16:04 59.7 °F 20.8 °F 30.26 in Calm   -999.0 mph 22 % 0 in
16:19 58.8 °F 20.0 °F 30.26 in South 1.1 mph -999.0 mph 22 % 0 in
16:34 58.1 °F 20.5 °F 30.26 in Calm   -999.0 mph 23 % 0 in
16:49 57.4 °F 19.9 °F 30.27 in SE 1.7 mph -999.0 mph 23 % 0 in
17:04 56.5 °F 19.1 °F 30.27 in SE 1.7 mph -999.0 mph 23 % 0 in
17:20 55.6 °F 20.3 °F 30.27 in Calm   -999.0 mph 25 % 0 in
17:35 54.5 °F 20.3 °F 30.28 in Calm   -999.0 mph 26 % 0 in
17:50 53.2 °F 19.2 °F 30.29 in Calm   -999.0 mph 26 % 0 in
18:05 52.0 °F 19.0 °F 30.29 in Calm   -999.0 mph 27 % 0 in
18:21 50.7 °F 19.6 °F 30.29 in Calm   -999.0 mph 29 % 0 in
18:36 49.5 °F 20.8 °F 30.30 in Calm   -999.0 mph 32 % 0 in
18:51 48.6 °F 20.8 °F 30.30 in Calm   -999.0 mph 33 % 0 in
19:06 47.7 °F 20.7 °F 30.30 in Calm   -999.0 mph 34 % 0 in
19:21 46.9 °F 19.3 °F 30.32 in Calm   -999.0 mph 33 % 0 in
19:37 46.2 °F 19.4 °F 30.32 in Calm   -999.0 mph 34 % 0 in
19:52 45.3 °F 19.2 °F 30.32 in Calm   -999.0 mph 35 % 0 in
20:07 45.3 °F 19.2 °F 30.33 in Calm   -999.0 mph 35 % 0 in
20:22 44.6 °F 19.9 °F 30.33 in Calm   -999.0 mph 37 % 0 in
20:37 44.4 °F 20.4 °F 30.34 in Calm   -999.0 mph 38 % 0 in
20:53 43.9 °F 21.1 °F 30.34 in Calm   -999.0 mph 40 % 0 in
21:08 43.9 °F 21.1 °F 30.34 in South 1.7 mph -999.0 mph 40 % 0 in
21:23 43.5 °F 21.3 °F 30.34 in South 1.7 mph -999.0 mph 41 % 0 in
21:38 43.9 °F 22.3 °F 30.34 in South 1.7 mph -999.0 mph 42 % 0 in
21:53 43.5 °F 23.0 °F 30.34 in South 2.7 mph -999.0 mph 44 % 0 in
22:09 43.0 °F 24.6 °F 30.35 in Calm   -999.0 mph 48 % 0 in
22:24 43.2 °F 24.3 °F 30.35 in Calm   -999.0 mph 47 % 0 in
22:39 43.2 °F 23.3 °F 30.35 in Calm   -999.0 mph 45 % 0 in
22:54 43.0 °F 23.6 °F 30.36 in SSE 1.7 mph -999.0 mph 46 % 0 in
23:09 43.2 °F 24.3 °F 30.36 in Calm   -999.0 mph 47 % 0 in
23:25 42.8 °F 23.4 °F 30.36 in Calm   -999.0 mph 46 % 0 in
23:40 42.4 °F 22.5 °F 30.36 in Calm   -999.0 mph 45 % 0 in
23:55 42.4 °F 22.5 °F 30.36 in Calm   -999.0 mph 45 % 0 in
Big Bear CA Weather
Compliments of Weather Underground - 1.5 mb